sensor_id;sensor_type;location;lat;lon;timestamp;P1;durP1;ratioP1;P2;durP2;ratioP2
31091;SDS011;67728;53.122;12.776;2023-02-26T00:01:11;259.60;;;49.37;;
31091;SDS011;67728;53.122;12.776;2023-02-26T00:02:42;259.63;;;49.27;;
31091;SDS011;67728;53.122;12.776;2023-02-26T00:04:15;257.57;;;48.87;;
31091;SDS011;67728;53.122;12.776;2023-02-26T00:05:46;256.05;;;48.95;;
31091;SDS011;67728;53.122;12.776;2023-02-26T00:07:17;254.60;;;48.83;;
31091;SDS011;67728;53.122;12.776;2023-02-26T00:08:48;257.17;;;48.80;;
31091;SDS011;67728;53.122;12.776;2023-02-26T00:10:20;257.87;;;48.83;;
31091;SDS011;67728;53.122;12.776;2023-02-26T00:11:52;255.27;;;48.77;;
31091;SDS011;67728;53.122;12.776;2023-02-26T00:13:23;255.57;;;49.17;;
31091;SDS011;67728;53.122;12.776;2023-02-26T00:14:56;252.33;;;49.10;;
31091;SDS011;67728;53.122;12.776;2023-02-26T00:16:29;253.40;;;48.80;;
31091;SDS011;67728;53.122;12.776;2023-02-26T00:18:03;252.23;;;48.50;;
31091;SDS011;67728;53.122;12.776;2023-02-26T00:19:37;253.10;;;48.83;;
31091;SDS011;67728;53.122;12.776;2023-02-26T00:21:08;249.93;;;48.80;;
31091;SDS011;67728;53.122;12.776;2023-02-26T00:22:46;249.60;;;48.80;;
31091;SDS011;67728;53.122;12.776;2023-02-26T00:24:18;254.97;;;48.47;;
31091;SDS011;67728;53.122;12.776;2023-02-26T00:25:50;255.50;;;48.97;;
31091;SDS011;67728;53.122;12.776;2023-02-26T00:27:22;257.23;;;49.47;;
31091;SDS011;67728;53.122;12.776;2023-02-26T00:28:53;251.27;;;48.80;;
31091;SDS011;67728;53.122;12.776;2023-02-26T00:30:27;242.37;;;48.77;;
31091;SDS011;67728;53.122;12.776;2023-02-26T00:31:59;238.37;;;48.70;;
31091;SDS011;67728;53.122;12.776;2023-02-26T00:33:32;247.80;;;49.08;;
31091;SDS011;67728;53.122;12.776;2023-02-26T00:35:03;229.87;;;48.87;;
31091;SDS011;67728;53.122;12.776;2023-02-26T00:36:36;233.93;;;48.97;;
31091;SDS011;67728;53.122;12.776;2023-02-26T00:38:15;216.03;;;48.50;;
31091;SDS011;67728;53.122;12.776;2023-02-26T00:39:49;225.83;;;48.33;;
31091;SDS011;67728;53.122;12.776;2023-02-26T00:41:28;211.60;;;48.07;;
31091;SDS011;67728;53.122;12.776;2023-02-26T00:42:59;229.63;;;48.17;;
31091;SDS011;67728;53.122;12.776;2023-02-26T00:44:32;237.57;;;48.80;;
31091;SDS011;67728;53.122;12.776;2023-02-26T00:46:09;226.88;;;48.67;;
31091;SDS011;67728;53.122;12.776;2023-02-26T00:47:49;245.77;;;48.80;;
31091;SDS011;67728;53.122;12.776;2023-02-26T00:49:26;240.93;;;48.67;;
31091;SDS011;67728;53.122;12.776;2023-02-26T00:51:15;224.67;;;48.60;;
31091;SDS011;67728;53.122;12.776;2023-02-26T00:53:01;233.67;;;48.73;;
31091;SDS011;67728;53.122;12.776;2023-02-26T00:54:38;232.17;;;48.47;;
31091;SDS011;67728;53.122;12.776;2023-02-26T00:56:09;251.90;;;48.83;;
31091;SDS011;67728;53.122;12.776;2023-02-26T00:57:40;239.65;;;48.60;;
31091;SDS011;67728;53.122;12.776;2023-02-26T00:59:12;251.43;;;49.17;;
31091;SDS011;67728;53.122;12.776;2023-02-26T01:00:44;246.68;;;49.03;;
31091;SDS011;67728;53.122;12.776;2023-02-26T01:02:17;243.43;;;49.20;;
31091;SDS011;67728;53.122;12.776;2023-02-26T01:03:48;255.30;;;49.17;;
31091;SDS011;67728;53.122;12.776;2023-02-26T01:05:21;257.27;;;49.33;;
31091;SDS011;67728;53.122;12.776;2023-02-26T01:06:55;255.27;;;49.50;;
31091;SDS011;67728;53.122;12.776;2023-02-26T01:08:28;257.77;;;49.80;;
31091;SDS011;67728;53.122;12.776;2023-02-26T01:10:03;257.20;;;49.17;;
31091;SDS011;67728;53.122;12.776;2023-02-26T01:11:35;255.90;;;49.17;;
31091;SDS011;67728;53.122;12.776;2023-02-26T01:13:07;253.57;;;49.30;;
31091;SDS011;67728;53.122;12.776;2023-02-26T01:14:39;256.53;;;49.63;;
31091;SDS011;67728;53.122;12.776;2023-02-26T01:16:12;251.27;;;49.30;;
31091;SDS011;67728;53.122;12.776;2023-02-26T01:17:52;243.00;;;48.93;;
31091;SDS011;67728;53.122;12.776;2023-02-26T01:19:31;243.87;;;48.97;;
31091;SDS011;67728;53.122;12.776;2023-02-26T01:21:09;240.50;;;48.85;;
31091;SDS011;67728;53.122;12.776;2023-02-26T01:22:48;243.97;;;49.07;;
31091;SDS011;67728;53.122;12.776;2023-02-26T01:24:24;249.82;;;48.72;;
31091;SDS011;67728;53.122;12.776;2023-02-26T01:26:00;253.93;;;49.13;;
31091;SDS011;67728;53.122;12.776;2023-02-26T01:27:36;246.67;;;48.90;;
31091;SDS011;67728;53.122;12.776;2023-02-26T01:29:09;246.02;;;49.28;;
31091;SDS011;67728;53.122;12.776;2023-02-26T01:30:41;238.33;;;49.37;;
31091;SDS011;67728;53.122;12.776;2023-02-26T01:32:14;246.53;;;48.73;;
31091;SDS011;67728;53.122;12.776;2023-02-26T01:33:53;251.43;;;49.17;;
31091;SDS011;67728;53.122;12.776;2023-02-26T01:35:31;246.18;;;48.88;;
31091;SDS011;67728;53.122;12.776;2023-02-26T01:37:13;246.25;;;48.90;;
31091;SDS011;67728;53.122;12.776;2023-02-26T01:38:56;251.65;;;49.15;;
31091;SDS011;67728;53.122;12.776;2023-02-26T01:42:37;257.50;;;49.25;;
31091;SDS011;67728;53.122;12.776;2023-02-26T01:44:14;253.20;;;49.17;;
31091;SDS011;67728;53.122;12.776;2023-02-26T01:45:56;251.33;;;49.10;;
31091;SDS011;67728;53.122;12.776;2023-02-26T01:47:38;254.18;;;49.33;;
31091;SDS011;67728;53.122;12.776;2023-02-26T01:49:17;256.77;;;49.30;;
31091;SDS011;67728;53.122;12.776;2023-02-26T01:50:48;252.65;;;49.15;;
31091;SDS011;67728;53.122;12.776;2023-02-26T01:54:30;236.80;;;48.95;;
31091;SDS011;67728;53.122;12.776;2023-02-26T01:56:05;248.88;;;49.20;;
31091;SDS011;67728;53.122;12.776;2023-02-26T01:57:42;257.20;;;49.47;;
31091;SDS011;67728;53.122;12.776;2023-02-26T01:59:13;257.83;;;49.03;;
31091;SDS011;67728;53.122;12.776;2023-02-26T02:00:47;259.40;;;49.60;;
31091;SDS011;67728;53.122;12.776;2023-02-26T02:02:19;256.38;;;49.33;;
31091;SDS011;67728;53.122;12.776;2023-02-26T02:03:54;252.00;;;49.25;;
31091;SDS011;67728;53.122;12.776;2023-02-26T02:05:26;251.07;;;49.47;;
31091;SDS011;67728;53.122;12.776;2023-02-26T02:07:01;245.70;;;49.33;;
31091;SDS011;67728;53.122;12.776;2023-02-26T02:08:34;246.40;;;49.88;;
31091;SDS011;67728;53.122;12.776;2023-02-26T02:10:05;249.68;;;49.55;;
31091;SDS011;67728;53.122;12.776;2023-02-26T02:11:39;240.30;;;49.50;;
31091;SDS011;67728;53.122;12.776;2023-02-26T02:13:29;235.70;;;49.33;;
31091;SDS011;67728;53.122;12.776;2023-02-26T02:15:08;237.15;;;49.45;;
31091;SDS011;67728;53.122;12.776;2023-02-26T02:16:47;241.85;;;49.45;;
31091;SDS011;67728;53.122;12.776;2023-02-26T02:18:27;248.93;;;49.15;;
31091;SDS011;67728;53.122;12.776;2023-02-26T02:20:09;225.98;;;48.88;;
31091;SDS011;67728;53.122;12.776;2023-02-26T02:22:02;199.05;;;47.55;;
31091;SDS011;67728;53.122;12.776;2023-02-26T02:23:46;211.40;;;48.17;;
31091;SDS011;67728;53.122;12.776;2023-02-26T02:25:32;228.57;;;48.90;;
31091;SDS011;67728;53.122;12.776;2023-02-26T02:27:14;240.05;;;49.13;;
31091;SDS011;67728;53.122;12.776;2023-02-26T02:29:08;224.75;;;48.67;;
31091;SDS011;67728;53.122;12.776;2023-02-26T02:31:00;215.43;;;48.63;;
31091;SDS011;67728;53.122;12.776;2023-02-26T02:32:37;241.38;;;48.85;;
31091;SDS011;67728;53.122;12.776;2023-02-26T02:34:15;250.77;;;48.70;;
31091;SDS011;67728;53.122;12.776;2023-02-26T02:35:51;245.85;;;48.67;;
31091;SDS011;67728;53.122;12.776;2023-02-26T02:37:28;242.23;;;48.72;;
31091;SDS011;67728;53.122;12.776;2023-02-26T02:39:05;244.20;;;49.10;;
31091;SDS011;67728;53.122;12.776;2023-02-26T02:40:40;253.45;;;49.20;;
31091;SDS011;67728;53.122;12.776;2023-02-26T02:42:18;243.15;;;49.20;;
31091;SDS011;67728;53.122;12.776;2023-02-26T02:43:54;236.02;;;49.05;;
31091;SDS011;67728;53.122;12.776;2023-02-26T02:45:33;244.85;;;49.35;;
31091;SDS011;67728;53.122;12.776;2023-02-26T02:47:12;241.40;;;49.00;;
31091;SDS011;67728;53.122;12.776;2023-02-26T02:48:46;242.57;;;48.70;;
31091;SDS011;67728;53.122;12.776;2023-02-26T02:50:22;238.95;;;48.92;;
31091;SDS011;67728;53.122;12.776;2023-02-26T02:51:59;239.35;;;48.95;;
31091;SDS011;67728;53.122;12.776;2023-02-26T02:53:36;235.48;;;49.50;;
31091;SDS011;67728;53.122;12.776;2023-02-26T02:55:13;231.73;;;49.17;;
31091;SDS011;67728;53.122;12.776;2023-02-26T02:56:49;242.90;;;49.22;;
31091;SDS011;67728;53.122;12.776;2023-02-26T02:58:27;245.95;;;49.55;;
31091;SDS011;67728;53.122;12.776;2023-02-26T03:00:02;251.93;;;48.97;;
31091;SDS011;67728;53.122;12.776;2023-02-26T03:01:36;256.47;;;49.93;;
31091;SDS011;67728;53.122;12.776;2023-02-26T03:03:12;248.65;;;49.50;;
31091;SDS011;67728;53.122;12.776;2023-02-26T03:04:49;255.88;;;49.03;;
31091;SDS011;67728;53.122;12.776;2023-02-26T03:06:20;249.52;;;49.15;;
31091;SDS011;67728;53.122;12.776;2023-02-26T03:07:54;250.60;;;49.88;;
31091;SDS011;67728;53.122;12.776;2023-02-26T03:09:29;241.77;;;49.15;;
31091;SDS011;67728;53.122;12.776;2023-02-26T03:11:00;250.05;;;49.80;;
31091;SDS011;67728;53.122;12.776;2023-02-26T03:12:31;252.73;;;49.22;;
31091;SDS011;67728;53.122;12.776;2023-02-26T03:14:03;255.00;;;49.73;;
31091;SDS011;67728;53.122;12.776;2023-02-26T03:15:41;241.95;;;49.47;;
31091;SDS011;67728;53.122;12.776;2023-02-26T03:17:23;251.23;;;49.33;;
31091;SDS011;67728;53.122;12.776;2023-02-26T03:19:03;236.40;;;49.30;;
31091;SDS011;67728;53.122;12.776;2023-02-26T03:20:44;239.90;;;49.33;;
31091;SDS011;67728;53.122;12.776;2023-02-26T03:22:24;257.65;;;49.30;;
31091;SDS011;67728;53.122;12.776;2023-02-26T03:24:03;257.05;;;48.80;;
31091;SDS011;67728;53.122;12.776;2023-02-26T03:25:42;258.00;;;49.13;;
31091;SDS011;67728;53.122;12.776;2023-02-26T03:27:19;260.73;;;49.77;;
31091;SDS011;67728;53.122;12.776;2023-02-26T03:28:56;263.10;;;49.93;;
31091;SDS011;67728;53.122;12.776;2023-02-26T03:30:36;260.37;;;49.57;;
31091;SDS011;67728;53.122;12.776;2023-02-26T03:32:10;257.40;;;49.57;;
31091;SDS011;67728;53.122;12.776;2023-02-26T03:33:47;256.55;;;49.88;;
31091;SDS011;67728;53.122;12.776;2023-02-26T03:35:31;253.52;;;49.30;;
31091;SDS011;67728;53.122;12.776;2023-02-26T03:37:06;250.75;;;49.22;;
31091;SDS011;67728;53.122;12.776;2023-02-26T03:38:43;252.10;;;49.83;;
31091;SDS011;67728;53.122;12.776;2023-02-26T03:40:21;251.15;;;49.13;;
31091;SDS011;67728;53.122;12.776;2023-02-26T03:41:56;253.57;;;49.47;;
31091;SDS011;67728;53.122;12.776;2023-02-26T03:43:34;247.90;;;49.13;;
31091;SDS011;67728;53.122;12.776;2023-02-26T03:45:11;251.47;;;49.23;;
31091;SDS011;67728;53.122;12.776;2023-02-26T03:46:44;245.40;;;49.27;;
31091;SDS011;67728;53.122;12.776;2023-02-26T03:48:20;247.33;;;49.27;;
31091;SDS011;67728;53.122;12.776;2023-02-26T03:49:57;232.10;;;49.00;;
31091;SDS011;67728;53.122;12.776;2023-02-26T03:51:34;234.00;;;48.97;;
31091;SDS011;67728;53.122;12.776;2023-02-26T03:53:08;245.83;;;49.33;;
31091;SDS011;67728;53.122;12.776;2023-02-26T03:54:42;245.20;;;49.05;;
31091;SDS011;67728;53.122;12.776;2023-02-26T03:56:20;250.93;;;48.97;;
31091;SDS011;67728;53.122;12.776;2023-02-26T03:57:56;256.23;;;49.00;;
31091;SDS011;67728;53.122;12.776;2023-02-26T03:59:27;258.67;;;49.27;;
31091;SDS011;67728;53.122;12.776;2023-02-26T04:01:00;254.80;;;48.97;;
31091;SDS011;67728;53.122;12.776;2023-02-26T04:02:37;256.88;;;49.40;;
31091;SDS011;67728;53.122;12.776;2023-02-26T04:04:15;257.40;;;49.27;;
31091;SDS011;67728;53.122;12.776;2023-02-26T04:05:50;255.48;;;49.05;;
31091;SDS011;67728;53.122;12.776;2023-02-26T04:07:24;258.23;;;49.83;;
31091;SDS011;67728;53.122;12.776;2023-02-26T04:08:57;258.03;;;49.37;;
31091;SDS011;67728;53.122;12.776;2023-02-26T04:10:28;260.00;;;49.23;;
31091;SDS011;67728;53.122;12.776;2023-02-26T04:12:04;258.65;;;49.00;;
31091;SDS011;67728;53.122;12.776;2023-02-26T04:13:36;259.60;;;49.10;;
31091;SDS011;67728;53.122;12.776;2023-02-26T04:15:07;258.73;;;49.25;;
31091;SDS011;67728;53.122;12.776;2023-02-26T04:16:39;263.33;;;49.67;;
31091;SDS011;67728;53.122;12.776;2023-02-26T04:18:12;261.93;;;49.87;;
31091;SDS011;67728;53.122;12.776;2023-02-26T04:19:44;250.63;;;49.28;;
31091;SDS011;67728;53.122;12.776;2023-02-26T04:21:16;257.50;;;49.67;;
31091;SDS011;67728;53.122;12.776;2023-02-26T04:22:51;262.87;;;49.97;;
31091;SDS011;67728;53.122;12.776;2023-02-26T04:24:23;263.10;;;49.83;;
31091;SDS011;67728;53.122;12.776;2023-02-26T04:25:55;260.17;;;49.80;;
31091;SDS011;67728;53.122;12.776;2023-02-26T04:27:27;242.17;;;49.33;;
31091;SDS011;67728;53.122;12.776;2023-02-26T04:28:58;242.13;;;49.40;;
31091;SDS011;67728;53.122;12.776;2023-02-26T04:30:30;235.25;;;49.10;;
31091;SDS011;67728;53.122;12.776;2023-02-26T04:32:02;241.93;;;49.15;;
31091;SDS011;67728;53.122;12.776;2023-02-26T04:33:33;230.63;;;49.08;;
31091;SDS011;67728;53.122;12.776;2023-02-26T04:35:05;249.63;;;48.88;;
31091;SDS011;67728;53.122;12.776;2023-02-26T04:36:37;262.60;;;49.60;;
31091;SDS011;67728;53.122;12.776;2023-02-26T04:38:10;260.67;;;49.33;;
31091;SDS011;67728;53.122;12.776;2023-02-26T04:39:41;258.87;;;49.30;;
31091;SDS011;67728;53.122;12.776;2023-02-26T04:41:12;264.97;;;51.10;;
31091;SDS011;67728;53.122;12.776;2023-02-26T04:42:44;257.50;;;49.50;;
31091;SDS011;67728;53.122;12.776;2023-02-26T04:44:15;248.48;;;48.92;;
31091;SDS011;67728;53.122;12.776;2023-02-26T04:45:47;259.10;;;49.50;;
31091;SDS011;67728;53.122;12.776;2023-02-26T04:47:19;256.00;;;49.17;;
31091;SDS011;67728;53.122;12.776;2023-02-26T04:48:51;257.30;;;49.25;;
31091;SDS011;67728;53.122;12.776;2023-02-26T04:50:22;256.67;;;49.27;;
31091;SDS011;67728;53.122;12.776;2023-02-26T04:51:54;258.67;;;49.37;;
31091;SDS011;67728;53.122;12.776;2023-02-26T04:53:26;259.03;;;49.53;;
31091;SDS011;67728;53.122;12.776;2023-02-26T04:54:57;256.87;;;49.17;;
31091;SDS011;67728;53.122;12.776;2023-02-26T04:56:28;255.63;;;48.88;;
31091;SDS011;67728;53.122;12.776;2023-02-26T04:58:01;257.87;;;49.13;;
31091;SDS011;67728;53.122;12.776;2023-02-26T04:59:32;259.77;;;49.37;;
31091;SDS011;67728;53.122;12.776;2023-02-26T05:01:04;256.27;;;49.40;;
31091;SDS011;67728;53.122;12.776;2023-02-26T05:02:35;244.20;;;49.07;;
31091;SDS011;67728;53.122;12.776;2023-02-26T05:04:06;214.00;;;48.55;;
31091;SDS011;67728;53.122;12.776;2023-02-26T05:05:38;217.83;;;48.53;;
31091;SDS011;67728;53.122;12.776;2023-02-26T05:07:09;224.90;;;48.63;;
31091;SDS011;67728;53.122;12.776;2023-02-26T05:08:42;238.13;;;49.00;;
31091;SDS011;67728;53.122;12.776;2023-02-26T05:10:14;223.23;;;48.47;;
31091;SDS011;67728;53.122;12.776;2023-02-26T05:11:45;217.27;;;48.30;;
31091;SDS011;67728;53.122;12.776;2023-02-26T05:13:17;209.77;;;48.00;;
31091;SDS011;67728;53.122;12.776;2023-02-26T05:14:48;222.67;;;48.70;;
31091;SDS011;67728;53.122;12.776;2023-02-26T05:16:20;234.95;;;48.65;;
31091;SDS011;67728;53.122;12.776;2023-02-26T05:17:51;253.07;;;50.25;;
31091;SDS011;67728;53.122;12.776;2023-02-26T05:19:23;237.33;;;49.17;;
31091;SDS011;67728;53.122;12.776;2023-02-26T05:20:54;237.25;;;48.78;;
31091;SDS011;67728;53.122;12.776;2023-02-26T05:22:26;221.43;;;48.42;;
31091;SDS011;67728;53.122;12.776;2023-02-26T05:23:59;224.18;;;48.95;;
31091;SDS011;67728;53.122;12.776;2023-02-26T05:25:31;232.27;;;48.33;;
31091;SDS011;67728;53.122;12.776;2023-02-26T05:27:03;248.83;;;48.83;;
31091;SDS011;67728;53.122;12.776;2023-02-26T05:28:35;246.10;;;49.17;;
31091;SDS011;67728;53.122;12.776;2023-02-26T05:30:08;239.88;;;48.72;;
31091;SDS011;67728;53.122;12.776;2023-02-26T05:31:41;241.83;;;48.47;;
31091;SDS011;67728;53.122;12.776;2023-02-26T05:33:12;252.60;;;48.90;;
31091;SDS011;67728;53.122;12.776;2023-02-26T05:34:43;249.77;;;48.83;;
31091;SDS011;67728;53.122;12.776;2023-02-26T05:36:15;251.80;;;48.87;;
31091;SDS011;67728;53.122;12.776;2023-02-26T05:37:46;251.90;;;48.47;;
31091;SDS011;67728;53.122;12.776;2023-02-26T05:39:19;253.53;;;48.93;;
31091;SDS011;67728;53.122;12.776;2023-02-26T05:40:50;259.57;;;49.63;;
31091;SDS011;67728;53.122;12.776;2023-02-26T05:42:26;256.33;;;49.00;;
31091;SDS011;67728;53.122;12.776;2023-02-26T05:43:58;255.27;;;49.00;;
31091;SDS011;67728;53.122;12.776;2023-02-26T05:45:29;257.57;;;49.30;;
31091;SDS011;67728;53.122;12.776;2023-02-26T05:47:01;255.03;;;48.97;;
31091;SDS011;67728;53.122;12.776;2023-02-26T05:48:33;257.97;;;49.17;;
31091;SDS011;67728;53.122;12.776;2023-02-26T05:50:05;244.77;;;48.77;;
31091;SDS011;67728;53.122;12.776;2023-02-26T05:51:38;248.43;;;49.00;;
31091;SDS011;67728;53.122;12.776;2023-02-26T05:53:11;247.13;;;48.67;;
31091;SDS011;67728;53.122;12.776;2023-02-26T05:54:44;253.93;;;48.83;;
31091;SDS011;67728;53.122;12.776;2023-02-26T05:56:16;257.80;;;49.13;;
31091;SDS011;67728;53.122;12.776;2023-02-26T05:57:47;256.70;;;49.00;;
31091;SDS011;67728;53.122;12.776;2023-02-26T05:59:19;254.33;;;49.10;;
31091;SDS011;67728;53.122;12.776;2023-02-26T06:00:51;250.87;;;48.60;;
31091;SDS011;67728;53.122;12.776;2023-02-26T06:02:22;253.97;;;48.90;;
31091;SDS011;67728;53.122;12.776;2023-02-26T06:03:54;251.50;;;48.77;;
31091;SDS011;67728;53.122;12.776;2023-02-26T06:05:26;219.53;;;48.43;;
31091;SDS011;67728;53.122;12.776;2023-02-26T06:06:57;224.43;;;48.40;;
31091;SDS011;67728;53.122;12.776;2023-02-26T06:08:28;230.27;;;48.40;;
31091;SDS011;67728;53.122;12.776;2023-02-26T06:10:01;221.40;;;48.27;;
31091;SDS011;67728;53.122;12.776;2023-02-26T06:11:32;238.03;;;48.40;;
31091;SDS011;67728;53.122;12.776;2023-02-26T06:13:03;217.15;;;48.08;;
31091;SDS011;67728;53.122;12.776;2023-02-26T06:14:34;213.03;;;48.03;;
31091;SDS011;67728;53.122;12.776;2023-02-26T06:16:06;205.53;;;47.60;;
31091;SDS011;67728;53.122;12.776;2023-02-26T06:17:38;211.63;;;47.73;;
31091;SDS011;67728;53.122;12.776;2023-02-26T06:19:10;222.67;;;48.43;;
31091;SDS011;67728;53.122;12.776;2023-02-26T06:20:42;248.03;;;48.37;;
31091;SDS011;67728;53.122;12.776;2023-02-26T06:22:14;252.97;;;48.23;;
31091;SDS011;67728;53.122;12.776;2023-02-26T06:23:45;253.73;;;48.10;;
31091;SDS011;67728;53.122;12.776;2023-02-26T06:25:18;255.67;;;48.43;;
31091;SDS011;67728;53.122;12.776;2023-02-26T06:26:49;259.53;;;49.20;;
31091;SDS011;67728;53.122;12.776;2023-02-26T06:28:20;255.07;;;48.50;;
31091;SDS011;67728;53.122;12.776;2023-02-26T06:29:54;252.83;;;48.23;;
31091;SDS011;67728;53.122;12.776;2023-02-26T06:31:25;254.13;;;48.90;;
31091;SDS011;67728;53.122;12.776;2023-02-26T06:32:57;258.10;;;48.83;;
31091;SDS011;67728;53.122;12.776;2023-02-26T06:34:28;257.60;;;51.37;;
31091;SDS011;67728;53.122;12.776;2023-02-26T06:36:00;258.27;;;49.03;;
31091;SDS011;67728;53.122;12.776;2023-02-26T06:37:32;252.37;;;48.27;;
31091;SDS011;67728;53.122;12.776;2023-02-26T06:39:03;245.87;;;48.30;;
31091;SDS011;67728;53.122;12.776;2023-02-26T06:40:37;251.77;;;48.57;;
31091;SDS011;67728;53.122;12.776;2023-02-26T06:42:07;250.63;;;48.40;;
31091;SDS011;67728;53.122;12.776;2023-02-26T06:43:39;249.87;;;48.17;;
31091;SDS011;67728;53.122;12.776;2023-02-26T06:45:11;253.27;;;48.40;;
31091;SDS011;67728;53.122;12.776;2023-02-26T06:46:43;254.97;;;48.60;;
31091;SDS011;67728;53.122;12.776;2023-02-26T06:48:14;253.17;;;48.23;;
31091;SDS011;67728;53.122;12.776;2023-02-26T06:49:46;261.60;;;50.17;;
31091;SDS011;67728;53.122;12.776;2023-02-26T06:51:18;256.70;;;51.27;;
31091;SDS011;67728;53.122;12.776;2023-02-26T06:52:48;253.83;;;49.53;;
31091;SDS011;67728;53.122;12.776;2023-02-26T06:54:20;254.93;;;48.80;;
31091;SDS011;67728;53.122;12.776;2023-02-26T06:55:52;255.97;;;48.93;;
31091;SDS011;67728;53.122;12.776;2023-02-26T06:57:24;255.53;;;48.53;;
31091;SDS011;67728;53.122;12.776;2023-02-26T06:58:54;254.83;;;48.27;;
31091;SDS011;67728;53.122;12.776;2023-02-26T07:00:26;255.33;;;48.40;;
31091;SDS011;67728;53.122;12.776;2023-02-26T07:01:58;255.73;;;48.53;;
31091;SDS011;67728;53.122;12.776;2023-02-26T07:03:29;256.13;;;48.70;;
31091;SDS011;67728;53.122;12.776;2023-02-26T07:05:01;255.63;;;48.80;;
31091;SDS011;67728;53.122;12.776;2023-02-26T07:06:33;259.53;;;49.13;;
31091;SDS011;67728;53.122;12.776;2023-02-26T07:08:04;257.03;;;48.50;;
31091;SDS011;67728;53.122;12.776;2023-02-26T07:09:36;256.40;;;48.60;;
31091;SDS011;67728;53.122;12.776;2023-02-26T07:11:09;255.93;;;48.60;;
31091;SDS011;67728;53.122;12.776;2023-02-26T07:12:41;256.17;;;48.67;;
31091;SDS011;67728;53.122;12.776;2023-02-26T07:14:13;254.60;;;48.47;;
31091;SDS011;67728;53.122;12.776;2023-02-26T07:15:44;256.67;;;48.77;;
31091;SDS011;67728;53.122;12.776;2023-02-26T07:17:16;256.60;;;48.80;;
31091;SDS011;67728;53.122;12.776;2023-02-26T07:18:50;260.33;;;49.10;;
31091;SDS011;67728;53.122;12.776;2023-02-26T07:20:21;258.87;;;49.10;;
31091;SDS011;67728;53.122;12.776;2023-02-26T07:21:54;255.93;;;48.63;;
31091;SDS011;67728;53.122;12.776;2023-02-26T07:23:24;258.63;;;48.93;;
31091;SDS011;67728;53.122;12.776;2023-02-26T07:24:56;257.30;;;48.50;;
31091;SDS011;67728;53.122;12.776;2023-02-26T07:26:30;258.13;;;48.63;;
31091;SDS011;67728;53.122;12.776;2023-02-26T07:28:02;256.63;;;49.03;;
31091;SDS011;67728;53.122;12.776;2023-02-26T07:29:34;257.03;;;48.67;;
31091;SDS011;67728;53.122;12.776;2023-02-26T07:31:06;274.83;;;51.93;;
31091;SDS011;67728;53.122;12.776;2023-02-26T07:32:38;261.57;;;49.60;;
31091;SDS011;67728;53.122;12.776;2023-02-26T07:34:09;255.57;;;48.67;;
31091;SDS011;67728;53.122;12.776;2023-02-26T07:35:41;257.67;;;48.80;;
31091;SDS011;67728;53.122;12.776;2023-02-26T07:37:13;256.23;;;48.83;;
31091;SDS011;67728;53.122;12.776;2023-02-26T07:38:43;259.33;;;48.87;;
31091;SDS011;67728;53.122;12.776;2023-02-26T07:40:15;257.93;;;48.77;;
31091;SDS011;67728;53.122;12.776;2023-02-26T07:41:48;271.27;;;50.70;;
31091;SDS011;67728;53.122;12.776;2023-02-26T07:43:20;263.30;;;49.30;;
31091;SDS011;67728;53.122;12.776;2023-02-26T07:44:51;261.43;;;49.20;;
31091;SDS011;67728;53.122;12.776;2023-02-26T07:46:23;258.53;;;49.13;;
31091;SDS011;67728;53.122;12.776;2023-02-26T07:47:55;263.33;;;51.40;;
31091;SDS011;67728;53.122;12.776;2023-02-26T07:49:26;255.40;;;49.17;;
31091;SDS011;67728;53.122;12.776;2023-02-26T07:50:58;255.03;;;49.30;;
31091;SDS011;67728;53.122;12.776;2023-02-26T07:52:29;273.38;;;52.05;;
31091;SDS011;67728;53.122;12.776;2023-02-26T07:54:01;254.30;;;49.00;;
31091;SDS011;67728;53.122;12.776;2023-02-26T07:55:33;256.83;;;49.10;;
31091;SDS011;67728;53.122;12.776;2023-02-26T07:57:06;257.20;;;48.90;;
31091;SDS011;67728;53.122;12.776;2023-02-26T07:58:37;258.43;;;49.30;;
31091;SDS011;67728;53.122;12.776;2023-02-26T08:00:09;258.77;;;49.40;;
31091;SDS011;67728;53.122;12.776;2023-02-26T08:01:42;260.37;;;49.60;;
31091;SDS011;67728;53.122;12.776;2023-02-26T08:03:13;270.43;;;51.13;;
31091;SDS011;67728;53.122;12.776;2023-02-26T08:04:45;261.00;;;49.87;;
31091;SDS011;67728;53.122;12.776;2023-02-26T08:06:17;261.13;;;49.90;;
31091;SDS011;67728;53.122;12.776;2023-02-26T08:07:48;260.00;;;49.63;;
31091;SDS011;67728;53.122;12.776;2023-02-26T08:09:21;259.17;;;49.50;;
31091;SDS011;67728;53.122;12.776;2023-02-26T08:10:53;259.70;;;49.50;;
31091;SDS011;67728;53.122;12.776;2023-02-26T08:12:26;263.33;;;49.97;;
31091;SDS011;67728;53.122;12.776;2023-02-26T08:13:57;258.00;;;49.10;;
31091;SDS011;67728;53.122;12.776;2023-02-26T08:15:29;261.07;;;49.43;;
31091;SDS011;67728;53.122;12.776;2023-02-26T08:17:01;260.57;;;50.00;;
31091;SDS011;67728;53.122;12.776;2023-02-26T08:18:32;258.80;;;49.20;;
31091;SDS011;67728;53.122;12.776;2023-02-26T08:20:05;261.30;;;49.80;;
31091;SDS011;67728;53.122;12.776;2023-02-26T08:21:37;261.27;;;49.60;;
31091;SDS011;67728;53.122;12.776;2023-02-26T08:23:08;262.20;;;49.75;;
31091;SDS011;67728;53.122;12.776;2023-02-26T08:24:40;270.77;;;50.92;;
31091;SDS011;67728;53.122;12.776;2023-02-26T08:26:12;263.20;;;49.87;;
31091;SDS011;67728;53.122;12.776;2023-02-26T08:27:45;265.90;;;51.77;;
31091;SDS011;67728;53.122;12.776;2023-02-26T08:29:16;267.43;;;57.70;;
31091;SDS011;67728;53.122;12.776;2023-02-26T08:30:51;266.30;;;50.67;;
31091;SDS011;67728;53.122;12.776;2023-02-26T08:32:23;274.13;;;51.20;;
31091;SDS011;67728;53.122;12.776;2023-02-26T08:33:56;263.90;;;49.73;;
31091;SDS011;67728;53.122;12.776;2023-02-26T08:35:28;253.68;;;49.83;;
31091;SDS011;67728;53.122;12.776;2023-02-26T08:37:00;260.77;;;50.25;;
31091;SDS011;67728;53.122;12.776;2023-02-26T08:38:32;274.10;;;51.67;;
31091;SDS011;67728;53.122;12.776;2023-02-26T08:40:05;260.57;;;49.73;;
31091;SDS011;67728;53.122;12.776;2023-02-26T08:41:38;261.67;;;50.00;;
31091;SDS011;67728;53.122;12.776;2023-02-26T08:43:11;261.00;;;49.73;;
31091;SDS011;67728;53.122;12.776;2023-02-26T08:44:43;260.83;;;50.00;;
31091;SDS011;67728;53.122;12.776;2023-02-26T08:46:14;269.57;;;51.13;;
31091;SDS011;67728;53.122;12.776;2023-02-26T08:47:46;262.73;;;49.73;;
31091;SDS011;67728;53.122;12.776;2023-02-26T08:49:18;261.70;;;49.57;;
31091;SDS011;67728;53.122;12.776;2023-02-26T08:50:49;262.40;;;49.67;;
31091;SDS011;67728;53.122;12.776;2023-02-26T08:52:21;272.70;;;50.73;;
31091;SDS011;67728;53.122;12.776;2023-02-26T08:53:53;270.03;;;50.73;;
31091;SDS011;67728;53.122;12.776;2023-02-26T08:55:25;262.20;;;49.77;;
31091;SDS011;67728;53.122;12.776;2023-02-26T08:56:57;264.10;;;49.83;;